sensor_id;sensor_type;location;lat;lon;timestamp;temperature;humidity
25450;DHT22;13371;52.080;5.624;2024-01-11T00:00:44;-0.20;89.10
25450;DHT22;13371;52.080;5.624;2024-01-11T00:03:10;-0.30;88.60
25450;DHT22;13371;52.080;5.624;2024-01-11T00:05:36;-0.40;89.80
25450;DHT22;13371;52.080;5.624;2024-01-11T00:08:02;-0.70;89.90
25450;DHT22;13371;52.080;5.624;2024-01-11T00:10:28;-0.50;90.00
25450;DHT22;13371;52.080;5.624;2024-01-11T00:12:53;-0.60;89.90
25450;DHT22;13371;52.080;5.624;2024-01-11T00:15:19;-0.80;90.40
25450;DHT22;13371;52.080;5.624;2024-01-11T00:17:45;-0.60;90.50
25450;DHT22;13371;52.080;5.624;2024-01-11T00:20:10;-0.70;90.40
25450;DHT22;13371;52.080;5.624;2024-01-11T00:22:36;-0.60;90.10
25450;DHT22;13371;52.080;5.624;2024-01-11T00:25:02;-0.70;90.00
25450;DHT22;13371;52.080;5.624;2024-01-11T00:27:28;-0.90;90.20
25450;DHT22;13371;52.080;5.624;2024-01-11T00:29:53;-1.10;90.90
25450;DHT22;13371;52.080;5.624;2024-01-11T00:32:19;-1.30;91.60
25450;DHT22;13371;52.080;5.624;2024-01-11T00:34:46;-1.40;91.90
25450;DHT22;13371;52.080;5.624;2024-01-11T00:37:12;-1.40;91.90
25450;DHT22;13371;52.080;5.624;2024-01-11T00:39:37;-1.10;91.90
25450;DHT22;13371;52.080;5.624;2024-01-11T00:42:03;-1.00;91.40
25450;DHT22;13371;52.080;5.624;2024-01-11T00:44:29;-0.90;91.50
25450;DHT22;13371;52.080;5.624;2024-01-11T00:46:55;-1.10;91.80
25450;DHT22;13371;52.080;5.624;2024-01-11T00:49:21;-1.10;92.00
25450;DHT22;13371;52.080;5.624;2024-01-11T00:51:46;-0.90;91.50
25450;DHT22;13371;52.080;5.624;2024-01-11T00:54:12;-0.70;91.70
25450;DHT22;13371;52.080;5.624;2024-01-11T00:56:38;-0.70;91.40
25450;DHT22;13371;52.080;5.624;2024-01-11T00:59:03;-0.60;91.30
25450;DHT22;13371;52.080;5.624;2024-01-11T01:01:30;-0.50;90.90
25450;DHT22;13371;52.080;5.624;2024-01-11T01:03:55;-0.50;91.10
25450;DHT22;13371;52.080;5.624;2024-01-11T01:06:21;-0.60;90.70
25450;DHT22;13371;52.080;5.624;2024-01-11T01:08:46;-0.70;91.10
25450;DHT22;13371;52.080;5.624;2024-01-11T01:11:12;-0.60;91.50
25450;DHT22;13371;52.080;5.624;2024-01-11T01:13:38;-0.30;91.50
25450;DHT22;13371;52.080;5.624;2024-01-11T01:16:03;-0.50;91.10
25450;DHT22;13371;52.080;5.624;2024-01-11T01:18:29;-0.80;91.70
25450;DHT22;13371;52.080;5.624;2024-01-11T01:20:55;-1.00;92.10
25450;DHT22;13371;52.080;5.624;2024-01-11T01:23:21;-1.20;92.30
25450;DHT22;13371;52.080;5.624;2024-01-11T01:25:46;-1.20;92.70
25450;DHT22;13371;52.080;5.624;2024-01-11T01:28:12;-1.20;92.70
25450;DHT22;13371;52.080;5.624;2024-01-11T01:30:37;-1.20;93.00
25450;DHT22;13371;52.080;5.624;2024-01-11T01:33:03;-1.10;93.20
25450;DHT22;13371;52.080;5.624;2024-01-11T01:35:29;-1.20;93.00
25450;DHT22;13371;52.080;5.624;2024-01-11T01:37:55;-1.20;93.50
25450;DHT22;13371;52.080;5.624;2024-01-11T01:40:20;-1.40;94.10
25450;DHT22;13371;52.080;5.624;2024-01-11T01:42:46;-1.50;93.80
25450;DHT22;13371;52.080;5.624;2024-01-11T01:45:12;-1.50;94.10
25450;DHT22;13371;52.080;5.624;2024-01-11T01:47:40;-1.40;94.10
25450;DHT22;13371;52.080;5.624;2024-01-11T01:50:07;-1.10;93.90
25450;DHT22;13371;52.080;5.624;2024-01-11T01:52:33;-1.10;93.40
25450;DHT22;13371;52.080;5.624;2024-01-11T01:55:01;-1.00;93.20
25450;DHT22;13371;52.080;5.624;2024-01-11T01:57:28;-0.90;92.70
25450;DHT22;13371;52.080;5.624;2024-01-11T01:59:56;-1.00;93.00
25450;DHT22;13371;52.080;5.624;2024-01-11T02:02:22;-0.90;93.00
25450;DHT22;13371;52.080;5.624;2024-01-11T02:04:48;-1.10;92.90
25450;DHT22;13371;52.080;5.624;2024-01-11T02:07:14;-1.00;93.50
25450;DHT22;13371;52.080;5.624;2024-01-11T02:09:40;-0.90;93.60
25450;DHT22;13371;52.080;5.624;2024-01-11T02:12:06;-1.30;94.10
25450;DHT22;13371;52.080;5.624;2024-01-11T02:14:37;-1.50;94.40
25450;DHT22;13371;52.080;5.624;2024-01-11T02:17:02;-1.50;94.80
25450;DHT22;13371;52.080;5.624;2024-01-11T02:19:28;-1.60;95.10
25450;DHT22;13371;52.080;5.624;2024-01-11T02:21:54;-1.60;95.10
25450;DHT22;13371;52.080;5.624;2024-01-11T02:24:20;-1.70;95.60
25450;DHT22;13371;52.080;5.624;2024-01-11T02:27:00;-1.80;96.10
25450;DHT22;13371;52.080;5.624;2024-01-11T02:29:26;-1.90;96.10
25450;DHT22;13371;52.080;5.624;2024-01-11T02:31:52;-1.80;96.80
25450;DHT22;13371;52.080;5.624;2024-01-11T02:34:18;-1.60;96.30
25450;DHT22;13371;52.080;5.624;2024-01-11T02:36:44;-1.90;96.40
25450;DHT22;13371;52.080;5.624;2024-01-11T02:39:11;-1.80;97.40
25450;DHT22;13371;52.080;5.624;2024-01-11T02:41:37;-1.50;96.70
25450;DHT22;13371;52.080;5.624;2024-01-11T02:44:03;-1.30;96.00
25450;DHT22;13371;52.080;5.624;2024-01-11T02:46:29;-1.20;95.60
25450;DHT22;13371;52.080;5.624;2024-01-11T02:48:55;-1.00;95.50
25450;DHT22;13371;52.080;5.624;2024-01-11T02:51:20;-0.90;95.30
25450;DHT22;13371;52.080;5.624;2024-01-11T02:53:46;-0.90;95.00
25450;DHT22;13371;52.080;5.624;2024-01-11T02:56:11;-1.00;94.80
25450;DHT22;13371;52.080;5.624;2024-01-11T02:58:37;-1.00;94.70
25450;DHT22;13371;52.080;5.624;2024-01-11T03:01:03;-1.00;94.80
25450;DHT22;13371;52.080;5.624;2024-01-11T03:03:29;-1.00;94.60
25450;DHT22;13371;52.080;5.624;2024-01-11T03:05:54;-1.00;94.60
25450;DHT22;13371;52.080;5.624;2024-01-11T03:08:20;-1.00;94.40
25450;DHT22;13371;52.080;5.624;2024-01-11T03:10:45;-1.00;94.20
25450;DHT22;13371;52.080;5.624;2024-01-11T03:13:11;-1.00;93.60
25450;DHT22;13371;52.080;5.624;2024-01-11T03:15:36;-1.00;93.90
25450;DHT22;13371;52.080;5.624;2024-01-11T03:18:02;-1.40;94.40
25450;DHT22;13371;52.080;5.624;2024-01-11T03:20:27;-1.40;94.80
25450;DHT22;13371;52.080;5.624;2024-01-11T03:22:53;-1.60;95.10
25450;DHT22;13371;52.080;5.624;2024-01-11T03:25:19;-1.80;95.50
25450;DHT22;13371;52.080;5.624;2024-01-11T03:27:45;-1.80;96.00
25450;DHT22;13371;52.080;5.624;2024-01-11T03:30:11;-1.90;96.20
25450;DHT22;13371;52.080;5.624;2024-01-11T03:32:37;-2.10;97.20
25450;DHT22;13371;52.080;5.624;2024-01-11T03:35:07;-2.00;97.40
25450;DHT22;13371;52.080;5.624;2024-01-11T03:37:33;-2.20;97.50
25450;DHT22;13371;52.080;5.624;2024-01-11T03:39:59;-2.30;98.00
25450;DHT22;13371;52.080;5.624;2024-01-11T03:42:25;-2.40;98.20
25450;DHT22;13371;52.080;5.624;2024-01-11T03:44:50;-2.60;98.80
25450;DHT22;13371;52.080;5.624;2024-01-11T03:47:16;-2.90;99.70
25450;DHT22;13371;52.080;5.624;2024-01-11T03:49:42;-2.60;99.90
25450;DHT22;13371;52.080;5.624;2024-01-11T03:52:07;-2.50;99.60
25450;DHT22;13371;52.080;5.624;2024-01-11T03:54:33;-2.50;99.60
25450;DHT22;13371;52.080;5.624;2024-01-11T03:56:58;-2.10;98.60
25450;DHT22;13371;52.080;5.624;2024-01-11T03:59:24;-2.30;98.70
25450;DHT22;13371;52.080;5.624;2024-01-11T04:01:50;-2.70;99.50
25450;DHT22;13371;52.080;5.624;2024-01-11T04:04:16;-2.90;99.90
25450;DHT22;13371;52.080;5.624;2024-01-11T04:06:41;-3.00;99.90
25450;DHT22;13371;52.080;5.624;2024-01-11T04:09:07;-3.00;99.90
25450;DHT22;13371;52.080;5.624;2024-01-11T04:11:32;-3.10;99.90
25450;DHT22;13371;52.080;5.624;2024-01-11T04:13:58;-3.00;99.90
25450;DHT22;13371;52.080;5.624;2024-01-11T04:16:24;-3.20;99.90
25450;DHT22;13371;52.080;5.624;2024-01-11T04:18:49;-3.40;99.90
25450;DHT22;13371;52.080;5.624;2024-01-11T04:21:27;-3.10;99.90
25450;DHT22;13371;52.080;5.624;2024-01-11T04:23:56;-3.10;99.90
25450;DHT22;13371;52.080;5.624;2024-01-11T04:26:22;-2.90;99.90
25450;DHT22;13371;52.080;5.624;2024-01-11T04:28:49;-3.00;99.90
25450;DHT22;13371;52.080;5.624;2024-01-11T04:31:15;-3.00;99.90
25450;DHT22;13371;52.080;5.624;2024-01-11T04:33:45;-2.80;99.90
25450;DHT22;13371;52.080;5.624;2024-01-11T04:36:12;-2.90;99.90
25450;DHT22;13371;52.080;5.624;2024-01-11T04:38:38;-2.80;99.90
25450;DHT22;13371;52.080;5.624;2024-01-11T04:41:13;-2.90;99.90
25450;DHT22;13371;52.080;5.624;2024-01-11T04:43:40;-2.90;99.90
25450;DHT22;13371;52.080;5.624;2024-01-11T04:46:21;-2.80;99.90
25450;DHT22;13371;52.080;5.624;2024-01-11T04:48:47;-3.10;99.90
25450;DHT22;13371;52.080;5.624;2024-01-11T04:51:14;-3.00;99.90
25450;DHT22;13371;52.080;5.624;2024-01-11T04:53:41;-2.90;99.90
25450;DHT22;13371;52.080;5.624;2024-01-11T04:56:07;-2.90;99.90
25450;DHT22;13371;52.080;5.624;2024-01-11T04:58:36;-2.60;99.90
25450;DHT22;13371;52.080;5.624;2024-01-11T05:01:04;-2.70;99.90
25450;DHT22;13371;52.080;5.624;2024-01-11T05:03:30;-2.70;99.90
25450;DHT22;13371;52.080;5.624;2024-01-11T05:05:57;-2.80;99.90
25450;DHT22;13371;52.080;5.624;2024-01-11T05:08:23;-2.80;99.90
25450;DHT22;13371;52.080;5.624;2024-01-11T05:10:49;-2.70;99.90
25450;DHT22;13371;52.080;5.624;2024-01-11T05:13:15;-2.50;99.90
25450;DHT22;13371;52.080;5.624;2024-01-11T05:15:40;-2.60;99.90
25450;DHT22;13371;52.080;5.624;2024-01-11T05:18:06;-2.80;99.90
25450;DHT22;13371;52.080;5.624;2024-01-11T05:20:31;-2.80;99.90
25450;DHT22;13371;52.080;5.624;2024-01-11T05:22:57;-3.00;99.90
25450;DHT22;13371;52.080;5.624;2024-01-11T05:25:23;-2.90;99.90
25450;DHT22;13371;52.080;5.624;2024-01-11T05:27:48;-2.80;99.90
25450;DHT22;13371;52.080;5.624;2024-01-11T05:30:14;-2.90;99.90
25450;DHT22;13371;52.080;5.624;2024-01-11T05:32:39;-2.70;99.90
25450;DHT22;13371;52.080;5.624;2024-01-11T05:35:05;-2.60;99.90
25450;DHT22;13371;52.080;5.624;2024-01-11T05:37:31;-2.30;99.90
25450;DHT22;13371;52.080;5.624;2024-01-11T05:39:56;-2.10;99.90
25450;DHT22;13371;52.080;5.624;2024-01-11T05:42:23;-2.10;99.90
25450;DHT22;13371;52.080;5.624;2024-01-11T05:44:49;-1.90;99.90
25450;DHT22;13371;52.080;5.624;2024-01-11T05:47:14;-1.90;99.90
25450;DHT22;13371;52.080;5.624;2024-01-11T05:49:40;-1.70;99.90
25450;DHT22;13371;52.080;5.624;2024-01-11T05:52:06;-1.60;99.90
25450;DHT22;13371;52.080;5.624;2024-01-11T05:54:31;-1.80;99.90
25450;DHT22;13371;52.080;5.624;2024-01-11T05:56:57;-1.70;99.90
25450;DHT22;13371;52.080;5.624;2024-01-11T05:59:24;-1.70;99.90
25450;DHT22;13371;52.080;5.624;2024-01-11T06:01:49;-1.80;99.70
25450;DHT22;13371;52.080;5.624;2024-01-11T06:04:15;-1.70;99.40
25450;DHT22;13371;52.080;5.624;2024-01-11T06:06:41;-1.90;99.80
25450;DHT22;13371;52.080;5.624;2024-01-11T06:09:07;-1.90;99.90
25450;DHT22;13371;52.080;5.624;2024-01-11T06:11:33;-1.90;99.90
25450;DHT22;13371;52.080;5.624;2024-01-11T06:13:59;-1.70;99.50
25450;DHT22;13371;52.080;5.624;2024-01-11T06:16:25;-1.80;99.20
25450;DHT22;13371;52.080;5.624;2024-01-11T06:18:51;-1.80;98.60
25450;DHT22;13371;52.080;5.624;2024-01-11T06:21:16;-1.90;99.00
25450;DHT22;13371;52.080;5.624;2024-01-11T06:23:43;-2.10;99.10
25450;DHT22;13371;52.080;5.624;2024-01-11T06:26:09;-2.10;99.40
25450;DHT22;13371;52.080;5.624;2024-01-11T06:28:35;-2.00;99.50
25450;DHT22;13371;52.080;5.624;2024-01-11T06:31:00;-2.00;99.60
25450;DHT22;13371;52.080;5.624;2024-01-11T06:33:26;-1.90;99.70
25450;DHT22;13371;52.080;5.624;2024-01-11T06:35:51;-2.00;99.60
25450;DHT22;13371;52.080;5.624;2024-01-11T06:38:17;-2.00;99.70
25450;DHT22;13371;52.080;5.624;2024-01-11T06:40:42;-2.00;99.90
25450;DHT22;13371;52.080;5.624;2024-01-11T06:43:08;-2.20;99.90
25450;DHT22;13371;52.080;5.624;2024-01-11T06:45:34;-2.20;99.90
25450;DHT22;13371;52.080;5.624;2024-01-11T06:48:00;-2.20;99.90
25450;DHT22;13371;52.080;5.624;2024-01-11T06:50:26;-2.10;99.90
25450;DHT22;13371;52.080;5.624;2024-01-11T06:52:51;-2.00;99.90
25450;DHT22;13371;52.080;5.624;2024-01-11T06:55:17;-2.00;99.80
25450;DHT22;13371;52.080;5.624;2024-01-11T06:57:45;-2.00;99.90
25450;DHT22;13371;52.080;5.624;2024-01-11T07:00:11;-1.90;99.80
25450;DHT22;13371;52.080;5.624;2024-01-11T07:02:39;-2.10;99.80
25450;DHT22;13371;52.080;5.624;2024-01-11T07:05:05;-2.20;99.90
25450;DHT22;13371;52.080;5.624;2024-01-11T07:07:31;-2.00;99.90
25450;DHT22;13371;52.080;5.624;2024-01-11T07:09:58;-2.20;99.90
25450;DHT22;13371;52.080;5.624;2024-01-11T07:12:24;-2.30;99.90
25450;DHT22;13371;52.080;5.624;2024-01-11T07:14:51;-2.10;99.90
25450;DHT22;13371;52.080;5.624;2024-01-11T07:17:16;-2.00;99.90
25450;DHT22;13371;52.080;5.624;2024-01-11T07:19:42;-2.10;99.90
25450;DHT22;13371;52.080;5.624;2024-01-11T07:22:10;-2.20;99.90
25450;DHT22;13371;52.080;5.624;2024-01-11T07:24:37;-2.00;99.90
25450;DHT22;13371;52.080;5.624;2024-01-11T07:27:12;-2.10;99.90
25450;DHT22;13371;52.080;5.624;2024-01-11T07:29:38;-2.20;99.90
25450;DHT22;13371;52.080;5.624;2024-01-11T07:32:06;-2.00;99.90
25450;DHT22;13371;52.080;5.624;2024-01-11T07:34:37;-1.90;99.90
25450;DHT22;13371;52.080;5.624;2024-01-11T07:37:02;-2.00;99.90
25450;DHT22;13371;52.080;5.624;2024-01-11T07:39:29;-2.30;99.60
25450;DHT22;13371;52.080;5.624;2024-01-11T07:41:56;-2.50;99.90
25450;DHT22;13371;52.080;5.624;2024-01-11T07:44:22;-2.80;99.90
25450;DHT22;13371;52.080;5.624;2024-01-11T07:46:47;-2.80;99.90
25450;DHT22;13371;52.080;5.624;2024-01-11T07:49:13;-2.80;99.90
25450;DHT22;13371;52.080;5.624;2024-01-11T07:51:38;-2.80;99.90
25450;DHT22;13371;52.080;5.624;2024-01-11T07:54:04;-2.50;99.90
25450;DHT22;13371;52.080;5.624;2024-01-11T07:56:30;-2.30;99.90
25450;DHT22;13371;52.080;5.624;2024-01-11T07:58:56;-2.10;99.90
25450;DHT22;13371;52.080;5.624;2024-01-11T08:01:21;-2.20;99.90
25450;DHT22;13371;52.080;5.624;2024-01-11T08:03:47;-2.30;99.90
25450;DHT22;13371;52.080;5.624;2024-01-11T08:06:13;-2.20;99.90
25450;DHT22;13371;52.080;5.624;2024-01-11T08:08:39;-2.10;99.90
25450;DHT22;13371;52.080;5.624;2024-01-11T08:11:06;-2.00;99.90
25450;DHT22;13371;52.080;5.624;2024-01-11T08:13:32;-2.00;99.90
25450;DHT22;13371;52.080;5.624;2024-01-11T08:16:00;-2.00;99.90
25450;DHT22;13371;52.080;5.624;2024-01-11T08:18:26;-1.90;99.70
25450;DHT22;13371;52.080;5.624;2024-01-11T08:20:52;-1.90;99.50
25450;DHT22;13371;52.080;5.624;2024-01-11T08:23:17;-2.00;99.60
25450;DHT22;13371;52.080;5.624;2024-01-11T08:25:43;-1.90;99.90
25450;DHT22;13371;52.080;5.624;2024-01-11T08:28:08;-1.90;99.40
25450;DHT22;13371;52.080;5.624;2024-01-11T08:30:51;-1.90;99.50
25450;DHT22;13371;52.080;5.624;2024-01-11T08:33:17;-2.10;99.60
25450;DHT22;13371;52.080;5.624;2024-01-11T08:35:42;-2.30;99.90
25450;DHT22;13371;52.080;5.624;2024-01-11T08:38:08;-2.20;99.90
25450;DHT22;13371;52.080;5.624;2024-01-11T08:40:33;-1.90;99.90
25450;DHT22;13371;52.080;5.624;2024-01-11T08:43:02;-1.90;99.90
25450;DHT22;13371;52.080;5.624;2024-01-11T08:45:28;-2.00;99.90
25450;DHT22;13371;52.080;5.624;2024-01-11T08:47:56;-2.20;99.90
25450;DHT22;13371;52.080;5.624;2024-01-11T08:50:22;-2.30;99.90
25450;DHT22;13371;52.080;5.624;2024-01-11T08:52:48;-2.10;99.90
25450;DHT22;13371;52.080;5.624;2024-01-11T08:55:13;-1.90;99.90
25450;DHT22;13371;52.080;5.624;2024-01-11T08:57:39;-1.60;99.90
25450;DHT22;13371;52.080;5.624;2024-01-11T09:00:05;-1.30;99.90
25450;DHT22;13371;52.080;5.624;2024-01-11T09:02:31;-1.10;99.90
25450;DHT22;13371;52.080;5.624;2024-01-11T09:04:57;-0.80;99.90
25450;DHT22;13371;52.080;5.624;2024-01-11T09:07:22;-0.20;99.90
25450;DHT22;13371;52.080;5.624;2024-01-11T09:09:48;0.30;98.20
25450;DHT22;13371;52.080;5.624;2024-01-11T09:12:13;0.50;97.20
25450;DHT22;13371;52.080;5.624;2024-01-11T09:14:39;1.20;96.70
25450;DHT22;13371;52.080;5.624;2024-01-11T09:17:05;1.30;95.50
25450;DHT22;13371;52.080;5.624;2024-01-11T09:19:32;1.50;95.30
25450;DHT22;13371;52.080;5.624;2024-01-11T09:21:59;1.50;94.70
25450;DHT22;13371;52.080;5.624;2024-01-11T09:24:25;1.70;95.00
25450;DHT22;13371;52.080;5.624;2024-01-11T09:26:50;1.60;95.80
25450;DHT22;13371;52.080;5.624;2024-01-11T09:29:16;1.40;95.60
25450;DHT22;13371;52.080;5.624;2024-01-11T09:31:42;1.90;96.00
25450;DHT22;13371;52.080;5.624;2024-01-11T09:34:07;1.80;95.00
25450;DHT22;13371;52.080;5.624;2024-01-11T09:36:33;2.10;96.10
25450;DHT22;13371;52.080;5.624;2024-01-11T09:38:59;2.30;95.50
25450;DHT22;13371;52.080;5.624;2024-01-11T09:41:25;1.90;95.80
25450;DHT22;13371;52.080;5.624;2024-01-11T09:43:54;2.20;96.80
25450;DHT22;13371;52.080;5.624;2024-01-11T09:46:23;1.90;96.50
25450;DHT22;13371;52.080;5.624;2024-01-11T09:48:50;1.60;98.50
25450;DHT22;13371;52.080;5.624;2024-01-11T09:51:17;1.90;98.60
25450;DHT22;13371;52.080;5.624;2024-01-11T09:53:43;1.50;99.00
25450;DHT22;13371;52.080;5.624;2024-01-11T09:56:10;1.70;99.90
25450;DHT22;13371;52.080;5.624;2024-01-11T09:58:36;1.50;99.90
25450;DHT22;13371;52.080;5.624;2024-01-11T10:01:09;1.90;99.90
25450;DHT22;13371;52.080;5.624;2024-01-11T10:03:35;1.60;99.90
25450;DHT22;13371;52.080;5.624;2024-01-11T10:06:02;2.00;99.90
25450;DHT22;13371;52.080;5.624;2024-01-11T10:08:30;2.20;99.90
25450;DHT22;13371;52.080;5.624;2024-01-11T10:10:56;1.80;99.90
25450;DHT22;13371;52.080;5.624;2024-01-11T10:13:30;1.30;99.90
25450;DHT22;13371;52.080;5.624;2024-01-11T10:16:14;1.30;99.90
25450;DHT22;13371;52.080;5.624;2024-01-11T10:18:41;0.70;99.90
25450;DHT22;13371;52.080;5.624;2024-01-11T10:21:06;0.10;99.90
25450;DHT22;13371;52.080;5.624;2024-01-11T10:23:38;0.20;99.90
25450;DHT22;13371;52.080;5.624;2024-01-11T10:26:04;0.30;99.90
25450;DHT22;13371;52.080;5.624;2024-01-11T10:28:30;0.10;99.90
25450;DHT22;13371;52.080;5.624;2024-01-11T10:30:56;0.60;99.90
25450;DHT22;13371;52.080;5.624;2024-01-11T10:33:22;0.70;99.90
25450;DHT22;13371;52.080;5.624;2024-01-11T10:35:49;0.90;99.90
25450;DHT22;13371;52.080;5.624;2024-01-11T10:38:15;0.70;99.90
25450;DHT22;13371;52.080;5.624;2024-01-11T10:40:41;1.00;99.90
25450;DHT22;13371;52.080;5.624;2024-01-11T10:43:09;1.20;99.90
25450;DHT22;13371;52.080;5.624;2024-01-11T10:45:39;1.20;99.90
25450;DHT22;13371;52.080;5.624;2024-01-11T10:48:13;1.10;99.90
25450;DHT22;13371;52.080;5.624;2024-01-11T10:50:43;1.10;99.90
25450;DHT22;13371;52.080;5.624;2024-01-11T10:53:24;1.50;99.90
25450;DHT22;13371;52.080;5.624;2024-01-11T10:55:53;1.30;99.90
25450;DHT22;13371;52.080;5.624;2024-01-11T10:58:21;1.30;99.90
25450;DHT22;13371;52.080;5.624;2024-01-11T11:00:49;1.40;99.90
25450;DHT22;13371;52.080;5.624;2024-01-11T11:03:16;1.30;99.90
25450;DHT22;13371;52.080;5.624;2024-01-11T11:05:43;1.10;99.90
25450;DHT22;13371;52.080;5.624;2024-01-11T11:08:09;1.10;99.90
25450;DHT22;13371;52.080;5.624;2024-01-11T11:10:36;1.10;99.90
25450;DHT22;13371;52.080;5.624;2024-01-11T11:13:05;1.10;99.90
25450;DHT22;13371;52.080;5.624;2024-01-11T11:15:32;1.50;99.90
25450;DHT22;13371;52.080;5.624;2024-01-11T11:17:58;1.20;99.90
25450;DHT22;13371;52.080;5.624;2024-01-11T11:20:24;1.30;99.90
25450;DHT22;13371;52.080;5.624;2024-01-11T11:23:06;1.50;99.90
25450;DHT22;13371;52.080;5.624;2024-01-11T11:25:32;1.70;99.90
25450;DHT22;13371;52.080;5.624;2024-01-11T11:27:59;1.70;99.90
25450;DHT22;13371;52.080;5.624;2024-01-11T11:30:30;2.30;99.90
25450;DHT22;13371;52.080;5.624;2024-01-11T11:32:56;2.10;99.90
25450;DHT22;13371;52.080;5.624;2024-01-11T11:35:25;2.40;99.90
25450;DHT22;13371;52.080;5.624;2024-01-11T11:37:57;2.40;99.90
25450;DHT22;13371;52.080;5.624;2024-01-11T11:40:32;2.70;99.90
25450;DHT22;13371;52.080;5.624;2024-01-11T11:43:01;2.40;99.90
25450;DHT22;13371;52.080;5.624;2024-01-11T11:45:26;2.50;99.90
25450;DHT22;13371;52.080;5.624;2024-01-11T11:47:52;2.70;99.90
25450;DHT22;13371;52.080;5.624;2024-01-11T11:50:22;3.00;99.90
25450;DHT22;13371;52.080;5.624;2024-01-11T11:52:56;2.80;99.90
25450;DHT22;13371;52.080;5.624;2024-01-11T11:55:25;3.00;99.90
25450;DHT22;13371;52.080;5.624;2024-01-11T11:57:53;3.30;99.90
25450;DHT22;13371;52.080;5.624;2024-01-11T12:00:20;3.30;99.90
25450;DHT22;13371;52.080;5.624;2024-01-11T12:02:50;3.50;99.90
25450;DHT22;13371;52.080;5.624;2024-01-11T12:05:17;3.40;99.90
25450;DHT22;13371;52.080;5.624;2024-01-11T12:07:44;3.40;99.90
25450;DHT22;13371;52.080;5.624;2024-01-11T12:10:10;3.40;99.90
25450;DHT22;13371;52.080;5.624;2024-01-11T12:12:36;3.30;99.90
25450;DHT22;13371;52.080;5.624;2024-01-11T12:15:04;3.40;99.90
25450;DHT22;13371;52.080;5.624;2024-01-11T12:17:30;3.60;99.90
25450;DHT22;13371;52.080;5.624;2024-01-11T12:19:55;4.00;99.90
25450;DHT22;13371;52.080;5.624;2024-01-11T12:22:21;4.10;99.90
25450;DHT22;13371;52.080;5.624;2024-01-11T12:24:47;4.10;99.90
25450;DHT22;13371;52.080;5.624;2024-01-11T12:27:12;4.10;99.90
25450;DHT22;13371;52.080;5.624;2024-01-11T12:29:42;4.30;99.90
25450;DHT22;13371;52.080;5.624;2024-01-11T12:32:08;4.30;99.90
25450;DHT22;13371;52.080;5.624;2024-01-11T12:34:36;4.20;99.90
25450;DHT22;13371;52.080;5.624;2024-01-11T12:37:02;4.30;99.90
25450;DHT22;13371;52.080;5.624;2024-01-11T12:39:30;4.30;99.90
25450;DHT22;13371;52.080;5.624;2024-01-11T12:41:56;4.40;99.90
25450;DHT22;13371;52.080;5.624;2024-01-11T12:44:25;4.50;99.90
25450;DHT22;13371;52.080;5.624;2024-01-11T12:46:51;4.60;99.90
25450;DHT22;13371;52.080;5.624;2024-01-11T12:49:18;4.70;99.90
25450;DHT22;13371;52.080;5.624;2024-01-11T12:51:43;4.80;99.90
25450;DHT22;13371;52.080;5.624;2024-01-11T12:54:13;4.70;99.90
25450;DHT22;13371;52.080;5.624;2024-01-11T12:56:43;4.80;99.90
25450;DHT22;13371;52.080;5.624;2024-01-11T12:59:09;4.70;99.90
25450;DHT22;13371;52.080;5.624;2024-01-11T13:01:36;4.80;99.90
25450;DHT22;13371;52.080;5.624;2024-01-11T13:04:01;4.90;99.90
25450;DHT22;13371;52.080;5.624;2024-01-11T13:06:32;4.90;99.90
25450;DHT22;13371;52.080;5.624;2024-01-11T13:09:00;4.90;99.90
25450;DHT22;13371;52.080;5.624;2024-01-11T13:11:26;4.90;99.90
25450;DHT22;13371;52.080;5.624;2024-01-11T13:13:53;4.80;99.90
25450;DHT22;13371;52.080;5.624;2024-01-11T13:16:18;4.60;99.90
25450;DHT22;13371;52.080;5.624;2024-01-11T13:18:45;4.70;99.90
25450;DHT22;13371;52.080;5.624;2024-01-11T13:21:11;4.60;99.90
25450;DHT22;13371;52.080;5.624;2024-01-11T13:23:38;4.70;99.90
25450;DHT22;13371;52.080;5.624;2024-01-11T13:26:05;4.80;99.90
25450;DHT22;13371;52.080;5.624;2024-01-11T13:28:31;4.70;99.90
25450;DHT22;13371;52.080;5.624;2024-01-11T13:30:57;4.80;99.90
25450;DHT22;13371;52.080;5.624;2024-01-11T13:33:23;4.40;99.90
25450;DHT22;13371;52.080;5.624;2024-01-11T13:35:49;4.90;99.90
25450;DHT22;13371;52.080;5.624;2024-01-11T13:38:15;4.80;99.90
25450;DHT22;13371;52.080;5.624;2024-01-11T13:40:40;4.70;99.90
25450;DHT22;13371;52.080;5.624;2024-01-11T13:43:08;4.60;99.90
25450;DHT22;13371;52.080;5.624;2024-01-11T13:45:35;4.50;99.90
25450;DHT22;13371;52.080;5.624;2024-01-11T13:48:05;4.60;99.90
25450;DHT22;13371;52.080;5.624;2024-01-11T13:50:31;4.60;99.90
25450;DHT22;13371;52.080;5.624;2024-01-11T13:52:56;4.50;99.90
25450;DHT22;13371;52.080;5.624;2024-01-11T13:55:22;4.70;99.90
25450;DHT22;13371;52.080;5.624;2024-01-11T13:57:49;4.20;99.90
25450;DHT22;13371;52.080;5.624;2024-01-11T14:00:15;4.30;99.90
25450;DHT22;13371;52.080;5.624;2024-01-11T14:02:43;4.50;99.90
25450;DHT22;13371;52.080;5.624;2024-01-11T14:05:09;4.20;99.90
25450;DHT22;13371;52.080;5.624;2024-01-11T14:07:38;4.20;99.90
25450;DHT22;13371;52.080;5.624;2024-01-11T14:10:04;4.20;99.90
25450;DHT22;13371;52.080;5.624;2024-01-11T14:12:31;4.20;99.90
25450;DHT22;13371;52.080;5.624;2024-01-11T14:14:57;4.30;99.90
25450;DHT22;13371;52.080;5.624;2024-01-11T14:17:22;4.50;99.90
25450;DHT22;13371;52.080;5.624;2024-01-11T14:19:48;4.30;99.90
25450;DHT22;13371;52.080;5.624;2024-01-11T14:22:14;4.40;99.90
25450;DHT22;13371;52.080;5.624;2024-01-11T14:24:39;4.60;99.90
25450;DHT22;13371;52.080;5.624;2024-01-11T14:27:06;4.70;99.90
25450;DHT22;13371;52.080;5.624;2024-01-11T14:29:31;4.70;99.90
25450;DHT22;13371;52.080;5.624;2024-01-11T14:31:57;4.80;99.90
25450;DHT22;13371;52.080;5.624;2024-01-11T14:34:22;4.90;99.90
25450;DHT22;13371;52.080;5.624;2024-01-11T14:36:49;4.90;99.90
25450;DHT22;13371;52.080;5.624;2024-01-11T14:39:15;4.90;99.90
25450;DHT22;13371;52.080;5.624;2024-01-11T14:41:41;5.00;99.90
25450;DHT22;13371;52.080;5.624;2024-01-11T14:44:06;5.00;99.90
25450;DHT22;13371;52.080;5.624;2024-01-11T14:46:32;4.90;99.90
25450;DHT22;13371;52.080;5.624;2024-01-11T14:48:58;4.60;99.90
25450;DHT22;13371;52.080;5.624;2024-01-11T14:51:23;4.70;99.90
25450;DHT22;13371;52.080;5.624;2024-01-11T14:53:54;4.50;99.90
25450;DHT22;13371;52.080;5.624;2024-01-11T14:56:19;4.20;99.90
25450;DHT22;13371;52.080;5.624;2024-01-11T14:58:46;4.50;99.90
25450;DHT22;13371;52.080;5.624;2024-01-11T15:01:12;4.60;99.90
25450;DHT22;13371;52.080;5.624;2024-01-11T15:03:39;4.60;99.90
25450;DHT22;13371;52.080;5.624;2024-01-11T15:06:05;4.80;99.90
25450;DHT22;13371;52.080;5.624;2024-01-11T15:08:30;4.80;99.90
25450;DHT22;13371;52.080;5.624;2024-01-11T15:10:56;4.80;99.90
25450;DHT22;13371;52.080;5.624;2024-01-11T15:13:24;5.10;99.90
25450;DHT22;13371;52.080;5.624;2024-01-11T15:15:50;4.90;99.90
25450;DHT22;13371;52.080;5.624;2024-01-11T15:18:15;5.00;99.90
25450;DHT22;13371;52.080;5.624;2024-01-11T15:20:41;5.10;99.90
25450;DHT22;13371;52.080;5.624;2024-01-11T15:23:10;5.30;99.90
25450;DHT22;13371;52.080;5.624;2024-01-11T15:25:36;5.40;99.90
25450;DHT22;13371;52.080;5.624;2024-01-11T15:28:08;5.30;99.90
25450;DHT22;13371;52.080;5.624;2024-01-11T15:30:43;5.30;99.90
25450;DHT22;13371;52.080;5.624;2024-01-11T15:33:12;5.40;99.90